createdAt,value
2022-10-19T00:01:19.342Z,16.10
2022-10-19T00:03:50.673Z,16.10
2022-10-19T00:06:28.989Z,16.10
2022-10-19T00:09:00.357Z,16.10
2022-10-19T00:11:28.804Z,16.10
2022-10-19T00:13:57.626Z,16.10
2022-10-19T00:16:28.339Z,16.10
2022-10-19T00:19:01.257Z,16.10
2022-10-19T00:21:28.973Z,16.00
2022-10-19T00:23:56.360Z,16.10
2022-10-19T00:26:23.490Z,16.00
2022-10-19T00:28:53.011Z,16.00
2022-10-19T00:31:20.164Z,16.00
2022-10-19T00:33:47.834Z,16.00
2022-10-19T00:36:24.850Z,15.90
2022-10-19T00:38:53.181Z,15.90
2022-10-19T00:41:22.749Z,15.90
2022-10-19T00:44:05.339Z,15.90
2022-10-19T00:46:42.226Z,15.90
2022-10-19T00:49:23.650Z,15.90
2022-10-19T00:52:04.591Z,15.80
2022-10-19T00:54:37.292Z,15.80
2022-10-19T00:57:05.504Z,15.90
2022-10-19T00:59:33.831Z,15.90
2022-10-19T01:02:04.468Z,15.80
2022-10-19T01:04:36.036Z,15.80
2022-10-19T01:07:06.937Z,15.80
2022-10-19T01:09:34.883Z,15.80
2022-10-19T01:12:32.278Z,15.80
2022-10-19T01:15:26.273Z,15.70
2022-10-19T01:18:14.960Z,15.70
2022-10-19T01:21:06.023Z,15.70
2022-10-19T01:23:44.891Z,15.70
2022-10-19T01:26:55.611Z,15.70
2022-10-19T01:29:57.088Z,15.70
2022-10-19T01:32:59.299Z,15.70
2022-10-19T01:35:42.974Z,15.70
2022-10-19T01:38:47.157Z,15.70
2022-10-19T01:41:26.303Z,15.70
2022-10-19T01:44:08.069Z,15.70
2022-10-19T01:46:41.300Z,15.70
2022-10-19T01:49:51.670Z,15.70
2022-10-19T01:52:21.884Z,15.60
2022-10-19T01:54:53.804Z,15.70
2022-10-19T01:57:29.305Z,15.60
2022-10-19T01:59:58.230Z,15.60
2022-10-19T02:02:29.242Z,15.60
2022-10-19T02:04:57.672Z,15.60
2022-10-19T02:07:25.726Z,15.60
2022-10-19T02:09:52.834Z,15.60
2022-10-19T02:12:21.252Z,15.50
2022-10-19T02:14:54.932Z,15.50
2022-10-19T02:17:28.691Z,15.40
2022-10-19T02:19:56.970Z,15.30
2022-10-19T02:22:24.298Z,15.30
2022-10-19T02:24:51.343Z,15.30
2022-10-19T02:27:19.093Z,15.20
2022-10-19T02:29:46.369Z,15.20
2022-10-19T02:32:14.590Z,15.10
2022-10-19T02:34:42.062Z,15.10
2022-10-19T02:37:09.458Z,15.00
2022-10-19T02:39:37.545Z,15.00
2022-10-19T02:42:46.991Z,15.00
2022-10-19T02:45:37.306Z,14.90
2022-10-19T02:48:19.545Z,14.80
2022-10-19T02:50:52.012Z,14.80
2022-10-19T02:53:19.482Z,14.80
2022-10-19T02:55:49.492Z,14.70
2022-10-19T02:58:16.593Z,14.70
2022-10-19T03:00:43.672Z,14.60
2022-10-19T03:03:11.365Z,14.60
2022-10-19T03:05:38.447Z,14.50
2022-10-19T03:08:05.665Z,14.50
2022-10-19T03:10:32.890Z,14.50
2022-10-19T03:13:00.329Z,14.50
2022-10-19T03:15:29.770Z,14.40
2022-10-19T03:17:57.253Z,14.40
2022-10-19T03:20:24.467Z,14.40
2022-10-19T03:22:54.607Z,14.30
2022-10-19T03:25:21.671Z,14.30
2022-10-19T03:27:48.697Z,14.30
2022-10-19T03:30:15.891Z,14.20
2022-10-19T03:32:42.972Z,14.20
2022-10-19T03:35:10.258Z,14.20
2022-10-19T03:37:37.603Z,14.20
2022-10-19T03:40:05.691Z,14.10
2022-10-19T03:42:32.728Z,14.10
2022-10-19T03:44:59.812Z,14.10
2022-10-19T03:47:26.902Z,14.10
2022-10-19T03:49:54.028Z,14.10
2022-10-19T03:52:21.188Z,14.00
2022-10-19T03:54:51.478Z,14.00
2022-10-19T03:57:18.933Z,14.00
2022-10-19T03:59:46.104Z,13.90
2022-10-19T04:02:13.203Z,13.90
2022-10-19T04:04:40.285Z,13.90
2022-10-19T04:07:08.744Z,13.90
2022-10-19T04:09:35.802Z,13.80
2022-10-19T04:12:03.945Z,13.80
2022-10-19T04:14:32.602Z,13.80
2022-10-19T04:17:02.351Z,13.80
2022-10-19T04:19:29.620Z,13.70
2022-10-19T04:21:56.991Z,13.70
2022-10-19T04:24:24.569Z,13.70
2022-10-19T04:26:55.383Z,13.70
2022-10-19T04:29:29.501Z,13.60
2022-10-19T04:31:58.003Z,13.60
2022-10-19T04:34:25.252Z,13.60
2022-10-19T04:36:53.962Z,13.60
2022-10-19T04:39:21.044Z,13.50
2022-10-19T04:41:48.082Z,13.50
2022-10-19T04:44:15.651Z,13.50
2022-10-19T04:46:42.750Z,13.50
2022-10-19T04:49:09.822Z,13.50
2022-10-19T04:51:36.868Z,13.50
2022-10-19T04:54:04.866Z,13.50
2022-10-19T04:56:32.585Z,13.50
2022-10-19T04:59:01.046Z,13.50
2022-10-19T05:01:30.341Z,13.50
2022-10-19T05:04:00.888Z,13.40
2022-10-19T05:06:29.578Z,13.40
2022-10-19T05:08:57.512Z,13.40
2022-10-19T05:11:25.096Z,13.30
2022-10-19T05:13:52.292Z,13.30
2022-10-19T05:16:23.195Z,13.40
2022-10-19T05:18:53.153Z,13.30
2022-10-19T05:21:21.843Z,13.30
2022-10-19T05:23:53.135Z,13.30
2022-10-19T05:26:26.460Z,13.30
2022-10-19T05:28:57.418Z,13.30
2022-10-19T05:31:28.365Z,13.30
2022-10-19T05:33:56.450Z,13.20
2022-10-19T05:36:34.389Z,13.20
2022-10-19T05:39:07.795Z,13.30
2022-10-19T05:41:35.482Z,13.20
2022-10-19T05:44:04.134Z,13.20
2022-10-19T05:46:32.908Z,13.20
2022-10-19T05:49:00.583Z,13.20
2022-10-19T05:51:28.831Z,13.20
2022-10-19T05:53:56.966Z,13.30
2022-10-19T05:56:27.935Z,13.30
2022-10-19T05:58:57.304Z,13.30
2022-10-19T06:01:24.822Z,13.30
2022-10-19T06:03:54.290Z,13.40
2022-10-19T06:06:21.790Z,13.40
2022-10-19T06:08:49.715Z,13.40
2022-10-19T06:11:20.290Z,13.40
2022-10-19T06:13:50.667Z,13.50
2022-10-19T06:16:19.788Z,13.50
2022-10-19T06:18:47.602Z,13.50
2022-10-19T06:21:19.059Z,13.60
2022-10-19T06:23:55.048Z,13.60
2022-10-19T06:26:23.545Z,13.60
2022-10-19T06:28:51.507Z,13.60
2022-10-19T06:31:18.773Z,13.60
2022-10-19T06:33:49.214Z,13.70
2022-10-19T06:36:23.302Z,13.80
2022-10-19T06:38:51.060Z,13.80
2022-10-19T06:41:18.172Z,13.80
2022-10-19T06:43:49.473Z,13.90
2022-10-19T06:46:23.214Z,13.90
2022-10-19T06:49:02.296Z,14.00
2022-10-19T06:51:34.051Z,14.00
2022-10-19T06:54:01.199Z,14.00
2022-10-19T06:56:28.546Z,14.10
2022-10-19T06:58:55.899Z,14.10
2022-10-19T07:01:23.494Z,14.10
2022-10-19T07:03:52.783Z,14.20
2022-10-19T07:06:20.729Z,14.20
2022-10-19T07:08:48.707Z,14.30
2022-10-19T07:11:19.454Z,14.40
2022-10-19T07:13:46.528Z,14.40
2022-10-19T07:16:20.645Z,14.40
2022-10-19T07:18:51.170Z,14.40
2022-10-19T07:21:21.848Z,14.50
2022-10-19T07:23:49.220Z,14.60
2022-10-19T07:26:27.722Z,14.70
2022-10-19T07:28:57.266Z,14.70
2022-10-19T07:31:25.796Z,14.80
2022-10-19T07:34:02.163Z,14.90
2022-10-19T07:36:31.696Z,15.00
2022-10-19T07:38:58.944Z,15.10
2022-10-19T07:41:27.119Z,15.20
2022-10-19T07:43:55.046Z,15.30
2022-10-19T07:46:26.305Z,15.40
2022-10-19T07:48:53.685Z,15.50
2022-10-19T07:51:22.107Z,15.50
2022-10-19T07:53:49.382Z,15.50
2022-10-19T07:56:23.747Z,15.60
2022-10-19T07:58:52.884Z,15.60
2022-10-19T08:01:23.323Z,15.60
2022-10-19T08:06:41.021Z,15.70
2022-10-19T08:09:08.255Z,15.70
2022-10-19T08:11:36.203Z,15.70
2022-10-19T08:14:04.068Z,15.80
2022-10-19T08:16:40.344Z,15.80
2022-10-19T08:19:10.423Z,15.80
2022-10-19T08:21:40.087Z,15.90
2022-10-19T08:24:08.133Z,15.90
2022-10-19T08:26:38.312Z,15.90
2022-10-19T08:29:18.411Z,16.00
2022-10-19T08:31:47.819Z,16.00
2022-10-19T08:34:16.059Z,16.10
2022-10-19T08:36:43.862Z,16.10
2022-10-19T08:39:12.902Z,16.20
2022-10-19T08:42:19.625Z,16.20
2022-10-19T08:44:55.178Z,16.20
2022-10-19T08:47:40.708Z,16.30
2022-10-19T08:50:26.111Z,16.40
2022-10-19T08:53:17.918Z,16.40
2022-10-19T08:56:04.895Z,16.50
2022-10-19T08:59:04.131Z,16.60
2022-10-19T09:01:52.527Z,16.60
2022-10-19T09:04:48.219Z,16.70
2022-10-19T09:07:34.701Z,16.70
2022-10-19T09:10:14.771Z,16.60
2022-10-19T09:13:03.611Z,16.60
2022-10-19T09:15:47.085Z,16.60
2022-10-19T09:18:33.005Z,16.70
2022-10-19T09:21:30.994Z,16.90
2022-10-19T09:24:11.252Z,17.00
2022-10-19T09:26:52.143Z,17.20
2022-10-19T09:30:01.402Z,17.30
2022-10-19T09:32:35.205Z,17.30
2022-10-19T09:35:15.728Z,17.30
2022-10-19T09:37:48.523Z,17.30
2022-10-19T09:40:24.571Z,17.30
2022-10-19T09:42:57.139Z,17.30
2022-10-19T09:45:46.136Z,17.30
2022-10-19T09:48:42.453Z,17.30
2022-10-19T09:51:15.989Z,17.50
2022-10-19T09:53:55.251Z,17.70
2022-10-19T09:56:25.938Z,17.80
2022-10-19T09:58:59.656Z,17.90
2022-10-19T10:01:41.624Z,17.90
2022-10-19T10:04:19.045Z,17.90
2022-10-19T10:06:48.966Z,17.90
2022-10-19T10:09:28.806Z,17.80
2022-10-19T10:12:00.336Z,17.80
2022-10-19T10:14:35.095Z,17.80
2022-10-19T10:17:06.788Z,17.90
2022-10-19T10:19:36.180Z,17.90
2022-10-19T10:22:04.720Z,17.90
2022-10-19T10:24:34.321Z,18.00
2022-10-19T10:27:05.605Z,18.10
2022-10-19T10:29:39.081Z,18.10
2022-10-19T10:32:20.497Z,18.10
2022-10-19T10:35:16.900Z,18.10
2022-10-19T10:37:46.889Z,18.10
2022-10-19T10:40:23.750Z,18.10
2022-10-19T10:42:54.403Z,18.10
2022-10-19T10:45:43.004Z,18.20
2022-10-19T10:48:36.811Z,18.30
2022-10-19T10:51:20.004Z,18.50
2022-10-19T10:53:47.600Z,18.50
2022-10-19T10:56:33.401Z,18.50
2022-10-19T10:59:12.060Z,18.50
2022-10-19T11:02:01.287Z,18.60
2022-10-19T11:04:36.680Z,18.60
2022-10-19T11:07:21.672Z,18.60
2022-10-19T11:10:06.910Z,18.70
2022-10-19T11:12:45.328Z,18.90
2022-10-19T11:15:23.478Z,19.10
2022-10-19T11:18:00.459Z,19.20
2022-10-19T11:20:32.284Z,19.40
2022-10-19T11:23:19.091Z,19.60
2022-10-19T11:25:54.450Z,19.80
2022-10-19T11:28:58.250Z,20.00
2022-10-19T11:31:47.914Z,20.20
2022-10-19T11:34:45.743Z,20.40
2022-10-19T11:38:18.062Z,20.50
2022-10-19T11:41:18.908Z,20.60
2022-10-19T11:44:01.706Z,20.70
2022-10-19T11:46:47.036Z,20.80
2022-10-19T11:49:51.462Z,20.90
2022-10-19T11:53:01.156Z,20.90
2022-10-19T11:55:38.253Z,21.00
2022-10-19T11:58:41.169Z,21.10
2022-10-19T12:01:58.589Z,21.30
2022-10-19T12:04:54.555Z,21.50
2022-10-19T12:08:05.420Z,21.60
2022-10-19T12:10:50.599Z,21.60
2022-10-19T12:13:26.098Z,21.60
2022-10-19T12:15:54.306Z,21.60
2022-10-19T12:18:38.533Z,21.60
2022-10-19T12:21:18.666Z,21.60
2022-10-19T12:23:47.064Z,21.70
2022-10-19T12:26:21.348Z,21.80
2022-10-19T12:28:55.890Z,21.90
2022-10-19T12:31:26.216Z,21.90
2022-10-19T12:34:28.284Z,22.00
2022-10-19T12:37:36.652Z,22.10
2022-10-19T12:40:26.098Z,22.20
2022-10-19T12:43:09.608Z,22.40
2022-10-19T12:46:02.040Z,22.50
2022-10-19T12:48:29.090Z,22.60
2022-10-19T12:50:57.260Z,22.70
2022-10-19T12:53:40.944Z,22.70
2022-10-19T12:56:20.270Z,22.70
2022-10-19T12:59:03.730Z,22.80
2022-10-19T13:01:36.679Z,22.90
2022-10-19T13:04:21.327Z,23.00
2022-10-19T13:07:10.614Z,23.10
2022-10-19T13:09:48.246Z,23.20
2022-10-19T13:12:21.805Z,23.20
2022-10-19T13:14:57.387Z,23.10
2022-10-19T13:17:46.560Z,23.00
2022-10-19T13:20:13.563Z,23.00
2022-10-19T13:23:13.255Z,23.00
2022-10-19T13:25:41.706Z,22.90
2022-10-19T13:28:17.604Z,22.80
2022-10-19T13:30:44.534Z,22.70
2022-10-19T13:33:29.738Z,22.70
2022-10-19T13:36:00.018Z,22.70
2022-10-19T13:39:06.087Z,22.90
2022-10-19T13:41:39.004Z,22.70
2022-10-19T13:44:08.939Z,22.60
2022-10-19T13:47:07.030Z,22.50
2022-10-19T13:50:25.991Z,22.60
2022-10-19T13:53:01.731Z,22.60
2022-10-19T13:55:52.058Z,22.60
2022-10-19T13:59:20.083Z,22.50
2022-10-19T14:02:50.687Z,22.50
2022-10-19T14:06:06.658Z,22.40
2022-10-19T14:09:05.018Z,22.50
2022-10-19T14:11:41.659Z,22.40
2022-10-19T14:14:11.705Z,22.40
2022-10-19T14:17:03.961Z,22.40
2022-10-19T14:19:42.002Z,22.30
2022-10-19T14:22:36.046Z,22.00
2022-10-19T14:25:21.944Z,21.80
2022-10-19T14:27:54.158Z,21.60
2022-10-19T14:30:22.776Z,21.40
2022-10-19T14:32:50.463Z,21.10
2022-10-19T14:35:35.688Z,20.80
2022-10-19T14:38:06.410Z,20.40
2022-10-19T14:40:39.197Z,20.20
2022-10-19T14:43:26.665Z,20.00
2022-10-19T14:46:08.741Z,19.80
2022-10-19T14:48:48.572Z,19.60
2022-10-19T14:51:50.557Z,19.40
2022-10-19T14:54:40.664Z,19.10
2022-10-19T14:57:28.674Z,19.00
2022-10-19T15:00:11.308Z,18.80
2022-10-19T15:02:47.071Z,18.60
2022-10-19T15:05:28.189Z,18.40
2022-10-19T15:07:55.879Z,18.30
2022-10-19T15:10:30.294Z,18.20
2022-10-19T15:13:06.692Z,18.00
2022-10-19T15:15:35.942Z,17.80
2022-10-19T15:18:06.381Z,17.70
2022-10-19T15:20:49.618Z,17.50
2022-10-19T15:23:52.328Z,17.40
2022-10-19T15:26:24.478Z,17.30
2022-10-19T15:28:52.856Z,17.10
2022-10-19T15:31:28.797Z,17.00
2022-10-19T15:34:00.608Z,16.80
2022-10-19T15:36:30.456Z,16.60
2022-10-19T15:39:18.550Z,16.50
2022-10-19T15:41:52.856Z,16.30
2022-10-19T15:44:44.265Z,16.20
2022-10-19T15:47:19.149Z,16.10
2022-10-19T15:49:53.133Z,15.90
2022-10-19T15:52:43.242Z,15.80
2022-10-19T15:55:12.318Z,15.70
2022-10-19T15:57:39.967Z,15.60
2022-10-19T16:00:18.012Z,15.50
2022-10-19T16:02:45.094Z,15.40
2022-10-19T16:05:12.252Z,15.30
2022-10-19T16:07:41.996Z,15.20
2022-10-19T16:10:16.473Z,15.10
2022-10-19T16:12:44.017Z,15.10
2022-10-19T16:15:23.075Z,15.00
2022-10-19T16:17:59.589Z,14.90
2022-10-19T16:20:29.708Z,14.80
2022-10-19T16:22:58.500Z,14.70
2022-10-19T16:25:25.925Z,14.70
2022-10-19T16:27:54.437Z,14.60
2022-10-19T16:30:23.718Z,14.50
2022-10-19T16:32:51.836Z,14.40
2022-10-19T16:35:18.993Z,14.30
2022-10-19T16:40:14.011Z,14.20
2022-10-19T16:42:41.626Z,14.10
2022-10-19T16:45:10.010Z,14.10
2022-10-19T16:47:37.803Z,14.00
2022-10-19T16:50:06.597Z,14.00
2022-10-19T16:52:34.912Z,13.90
2022-10-19T16:55:02.605Z,13.80
2022-10-19T16:57:29.879Z,13.70
2022-10-19T16:59:57.753Z,13.60
2022-10-19T17:02:25.327Z,13.60
2022-10-19T17:04:52.686Z,13.60
2022-10-19T17:07:19.934Z,13.50
2022-10-19T17:09:49.713Z,13.50
2022-10-19T17:12:19.929Z,13.40
2022-10-19T17:14:47.918Z,13.30
2022-10-19T17:17:17.287Z,13.30
2022-10-19T17:19:44.916Z,13.20
2022-10-19T17:22:14.104Z,13.10
2022-10-19T17:24:41.897Z,13.00
2022-10-19T17:27:09.710Z,13.00
2022-10-19T17:29:38.964Z,13.00
2022-10-19T17:32:07.051Z,12.90
2022-10-19T17:34:35.204Z,12.90
2022-10-19T17:37:03.261Z,12.80
2022-10-19T17:39:32.346Z,12.80
2022-10-19T17:42:02.352Z,12.70
2022-10-19T17:44:31.948Z,12.70
2022-10-19T17:47:01.520Z,12.70
2022-10-19T17:49:30.410Z,12.60
2022-10-19T17:51:58.861Z,12.60
2022-10-19T17:54:27.888Z,12.50
2022-10-19T17:56:56.170Z,12.50
2022-10-19T17:59:34.585Z,12.50
2022-10-19T18:02:04.224Z,12.40
2022-10-19T18:04:33.096Z,12.40
2022-10-19T18:07:01.982Z,12.40
2022-10-19T18:09:30.078Z,12.40
2022-10-19T18:12:01.401Z,12.40
2022-10-19T18:14:32.553Z,12.40
2022-10-19T18:17:00.383Z,12.40
2022-10-19T18:19:29.190Z,12.30
2022-10-19T18:21:57.265Z,12.30
2022-10-19T18:24:26.561Z,12.30
2022-10-19T18:26:55.201Z,12.30
2022-10-19T18:29:26.258Z,12.20
2022-10-19T18:32:01.938Z,12.30
2022-10-19T18:34:34.082Z,12.30
2022-10-19T18:37:04.085Z,12.20
2022-10-19T18:39:32.046Z,12.20
2022-10-19T18:42:00.005Z,12.20
2022-10-19T18:44:30.374Z,12.20
2022-10-19T18:47:00.759Z,12.20
2022-10-19T18:49:28.606Z,12.20
2022-10-19T18:51:56.641Z,12.20
2022-10-19T18:54:28.412Z,12.20
2022-10-19T18:56:57.430Z,12.20
2022-10-19T19:01:57.023Z,12.10
2022-10-19T19:04:26.027Z,12.10
2022-10-19T19:06:54.259Z,12.00
2022-10-19T19:09:22.820Z,12.00
2022-10-19T19:11:52.046Z,12.00
2022-10-19T19:14:24.795Z,11.90
2022-10-19T19:16:52.926Z,11.90
2022-10-19T19:19:21.491Z,11.90
2022-10-19T19:21:50.553Z,11.80
2022-10-19T19:24:22.258Z,11.80
2022-10-19T19:26:54.155Z,11.80
2022-10-19T19:29:24.892Z,11.70
2022-10-19T19:31:53.843Z,11.60
2022-10-19T19:34:22.029Z,11.60
2022-10-19T19:36:51.036Z,11.60
2022-10-19T19:39:22.466Z,11.50
2022-10-19T19:41:52.800Z,11.50
2022-10-19T19:44:22.234Z,11.50
2022-10-19T19:46:50.440Z,11.40
2022-10-19T19:49:18.849Z,11.40
2022-10-19T19:51:47.078Z,11.30
2022-10-19T19:54:15.269Z,11.30
2022-10-19T19:56:43.407Z,11.30
2022-10-19T19:59:13.361Z,11.20
2022-10-19T20:01:42.154Z,11.20
2022-10-19T20:04:11.513Z,11.10
2022-10-19T20:06:41.200Z,11.10
2022-10-19T20:09:10.789Z,11.00
2022-10-19T20:11:42.784Z,11.00
2022-10-19T20:14:12.964Z,11.00
2022-10-19T20:16:42.806Z,10.90
2022-10-19T20:19:14.882Z,10.80
2022-10-19T20:21:43.593Z,10.80
2022-10-19T20:24:12.057Z,10.80
2022-10-19T20:26:40.591Z,10.80
2022-10-19T20:29:08.477Z,10.70
2022-10-19T20:31:40.112Z,10.70
2022-10-19T20:34:11.221Z,10.70
2022-10-19T20:36:39.354Z,10.60
2022-10-19T20:39:06.772Z,10.60
2022-10-19T20:41:34.834Z,10.50
2022-10-19T20:44:03.026Z,10.50
2022-10-19T20:46:32.179Z,10.50
2022-10-19T20:49:01.995Z,10.50
2022-10-19T20:51:37.187Z,10.50
2022-10-19T20:54:10.993Z,10.40
2022-10-19T20:56:41.296Z,10.40
2022-10-19T20:59:14.986Z,10.30
2022-10-19T21:01:44.477Z,10.30
2022-10-19T21:04:14.298Z,10.30
2022-10-19T21:06:48.649Z,10.30
2022-10-19T21:09:20.649Z,10.20
2022-10-19T21:11:53.035Z,10.20
2022-10-19T21:14:27.005Z,10.20
2022-10-19T21:16:57.418Z,10.20
2022-10-19T21:19:27.265Z,10.20
2022-10-19T21:22:03.990Z,10.20
2022-10-19T21:24:35.345Z,10.10
2022-10-19T21:27:07.504Z,10.10
2022-10-19T21:29:35.964Z,10.10
2022-10-19T21:32:03.369Z,10.00
2022-10-19T21:34:31.890Z,10.10
2022-10-19T21:36:59.162Z,10.00
2022-10-19T21:39:26.198Z,10.00
2022-10-19T21:41:53.581Z,10.00
2022-10-19T21:44:23.097Z,10.00
2022-10-19T21:46:50.459Z,9.90
2022-10-19T21:49:17.704Z,9.90
2022-10-19T21:51:51.010Z,9.90
2022-10-19T21:54:22.029Z,9.90
2022-10-19T21:56:49.530Z,9.80
2022-10-19T21:59:17.324Z,9.80
2022-10-19T22:01:44.846Z,9.80
2022-10-19T22:04:18.024Z,9.70
2022-10-19T22:06:45.477Z,9.70
2022-10-19T22:09:20.140Z,9.70
2022-10-19T22:11:47.853Z,9.70
2022-10-19T22:14:16.990Z,9.70
2022-10-19T22:16:44.673Z,9.60
2022-10-19T22:19:12.742Z,9.60
2022-10-19T22:21:40.664Z,9.60
2022-10-19T22:24:12.762Z,9.60
2022-10-19T22:26:44.342Z,9.60
2022-10-19T22:29:11.781Z,9.50
2022-10-19T22:31:39.015Z,9.50
2022-10-19T22:34:14.027Z,9.50
2022-10-19T22:36:41.446Z,9.40
2022-10-19T22:39:09.300Z,9.40
2022-10-19T22:41:36.437Z,9.40
2022-10-19T22:44:03.538Z,9.40
2022-10-19T22:46:30.654Z,9.40
2022-10-19T22:48:58.141Z,9.30
2022-10-19T22:51:25.415Z,9.30
2022-10-19T22:53:52.511Z,9.30
2022-10-19T22:56:19.739Z,9.30
2022-10-19T22:58:46.802Z,9.30
2022-10-19T23:01:15.870Z,9.20
2022-10-19T23:03:44.046Z,9.20
2022-10-19T23:06:14.213Z,9.10
2022-10-19T23:08:42.624Z,9.10
2022-10-19T23:11:09.791Z,9.10
2022-10-19T23:13:37.261Z,9.10
2022-10-19T23:16:04.611Z,9.00
2022-10-19T23:18:36.297Z,9.00
2022-10-19T23:21:11.318Z,8.90
2022-10-19T23:23:39.377Z,8.90
2022-10-19T23:26:15.525Z,8.80
2022-10-19T23:28:45.302Z,8.80
2022-10-19T23:31:26.032Z,8.70
2022-10-19T23:33:54.280Z,8.70
2022-10-19T23:36:24.772Z,8.60
2022-10-19T23:38:53.129Z,8.60
2022-10-19T23:41:21.127Z,8.50
2022-10-19T23:43:48.513Z,8.40
2022-10-19T23:46:15.938Z,8.40
2022-10-19T23:48:43.306Z,8.30
2022-10-19T23:51:17.438Z,8.30
2022-10-19T23:53:47.617Z,8.20
2022-10-19T23:56:17.888Z,8.10
2022-10-19T23:58:45.961Z,8.10
